Time;durP1;ratioP1;P1;durP2;ratioP2;P2;SDS_P1;SDS_P2;PMS_P1;PMS_P2;Temp;Humidity;BMP_temperature;BMP_pressure;BME280_temperature;BME280_humidity;BME280_pressure;Samples;Min_cycle;Max_cycle;Signal;HPM_P1;HPM_P2
2021/09/18 00:02:24;;;;;;;3.00;2.80;;;;;;;;;;5126447;27;24427;-59
2021/09/18 00:04:49;;;;;;;3.47;3.17;;;;;;;;;;5127615;27;24463;-59
2021/09/18 00:07:14;;;;;;;3.30;3.10;;;;;;;;;;5127694;27;24828;-59
2021/09/18 00:09:39;;;;;;;3.50;3.20;;;;;;;;;;5124926;27;24409;-59
2021/09/18 00:12:05;;;;;;;3.10;2.80;;;;;;;;;;5126025;27;25114;-59
2021/09/18 00:14:30;;;;;;;3.10;2.80;;;;;;;;;;5114315;27;24514;-59
2021/09/18 00:16:55;;;;;;;3.00;2.80;;;;;;;;;;5123372;27;24487;-59
2021/09/18 00:19:20;;;;;;;3.30;3.10;;;;;;;;;;5114211;27;24737;-60
2021/09/18 00:21:45;;;;;;;3.60;3.30;;;;;;;;;;5121482;27;24781;-60
2021/09/18 00:24:10;;;;;;;3.60;3.30;;;;;;;;;;5126149;27;24497;-59
2021/09/18 00:26:36;;;;;;;3.20;3.00;;;;;;;;;;5126015;27;24429;-60
2021/09/18 00:29:02;;;;;;;3.40;3.20;;;;;;;;;;5122941;27;24427;-60
2021/09/18 00:31:27;;;;;;;3.30;3.00;;;;;;;;;;5124944;27;24971;-60
2021/09/18 00:33:53;;;;;;;2.40;2.30;;;;;;;;;;5113653;27;24450;-60
2021/09/18 00:36:18;;;;;;;2.40;2.20;;;;;;;;;;5120308;27;24587;-59
2021/09/18 00:38:43;;;;;;;3.10;2.90;;;;;;;;;;5125301;27;24417;-60
2021/09/18 00:41:09;;;;;;;2.80;2.60;;;;;;;;;;5111708;27;24414;-60
2021/09/18 00:43:34;;;;;;;2.87;2.70;;;;;;;;;;5115441;27;24444;-59
2021/09/18 00:45:59;;;;;;;2.90;2.70;;;;;;;;;;5115608;27;24461;-59
2021/09/18 00:48:24;;;;;;;2.90;2.63;;;;;;;;;;5124052;27;24457;-59
2021/09/18 00:50:49;;;;;;;2.63;2.42;;;;;;;;;;5120019;27;24445;-59
2021/09/18 00:53:15;;;;;;;2.30;2.10;;;;;;;;;;5120191;27;24437;-58
2021/09/18 00:55:41;;;;;;;2.07;1.87;;;;;;;;;;5125900;27;24532;-60
2021/09/18 00:58:06;;;;;;;2.30;2.20;;;;;;;;;;5114674;27;24409;-59
2021/09/18 01:00:32;;;;;;;2.35;2.20;;;;;;;;;;5109600;27;24467;-59
2021/09/18 01:02:58;;;;;;;3.30;2.80;;;;;;;;;;5118816;28;24983;-60
2021/09/18 01:05:23;;;;;;;2.10;2.00;;;;;;;;;;5125726;28;24428;-60
2021/09/18 01:07:49;;;;;;;1.80;1.70;;;;;;;;;;5117942;28;24574;-60
2021/09/18 01:10:14;;;;;;;1.70;1.60;;;;;;;;;;5121759;27;24429;-60
2021/09/18 01:12:58;;;;;;;1.90;1.80;;;;;;;;;;5113801;28;25169;-59
2021/09/18 01:15:23;;;;;;;2.35;2.25;;;;;;;;;;5117042;28;24421;-60
2021/09/18 01:17:48;;;;;;;1.90;1.80;;;;;;;;;;5122513;28;24769;-59
2021/09/18 01:20:13;;;;;;;2.42;2.13;;;;;;;;;;5122182;28;24440;-59
2021/09/18 01:22:38;;;;;;;2.00;1.90;;;;;;;;;;5123721;28;24448;-59
2021/09/18 01:25:04;;;;;;;1.73;1.63;;;;;;;;;;5125418;28;24424;-60
2021/09/18 01:27:29;;;;;;;1.83;1.73;;;;;;;;;;5117647;28;24474;-59
2021/09/18 01:29:54;;;;;;;1.92;1.83;;;;;;;;;;5120728;28;24401;-60
2021/09/18 01:32:21;;;;;;;2.00;1.90;;;;;;;;;;5124570;28;24433;-60
2021/09/18 01:34:48;;;;;;;2.20;2.10;;;;;;;;;;5115796;28;24416;-59
2021/09/18 01:37:13;;;;;;;2.30;2.10;;;;;;;;;;5118254;28;24786;-60
2021/09/18 01:39:38;;;;;;;2.30;2.20;;;;;;;;;;5114784;28;24409;-60
2021/09/18 01:42:03;;;;;;;2.17;2.08;;;;;;;;;;5122858;28;24440;-60
2021/09/18 01:44:29;;;;;;;3.00;2.70;;;;;;;;;;5124689;28;24528;-60
2021/09/18 01:46:54;;;;;;;2.70;2.50;;;;;;;;;;5123109;28;24432;-60
2021/09/18 01:49:19;;;;;;;3.30;3.00;;;;;;;;;;5122930;28;24453;-60
2021/09/18 01:54:39;;;;;;;2.80;2.60;;;;;;;;;;5088094;28;24523;-60
2021/09/18 01:57:08;;;;;;;3.20;3.00;;;;;;;;;;5119979;28;24503;-60
2021/09/18 01:59:33;;;;;;;3.30;3.00;;;;;;;;;;5118705;27;25198;-60
2021/09/18 02:01:58;;;;;;;3.17;2.97;;;;;;;;;;5116804;28;24432;-60
2021/09/18 02:04:23;;;;;;;3.17;2.97;;;;;;;;;;5126771;27;24557;-59
2021/09/18 02:06:49;;;;;;;2.88;2.72;;;;;;;;;;5123604;27;24412;-59
2021/09/18 02:09:14;;;;;;;3.40;3.10;;;;;;;;;;5129078;27;24429;-60
2021/09/18 02:11:39;;;;;;;3.15;2.90;;;;;;;;;;5128465;27;24408;-60
2021/09/18 02:14:04;;;;;;;2.60;2.40;;;;;;;;;;5129204;27;24410;-60
2021/09/18 02:16:29;;;;;;;2.15;2.05;;;;;;;;;;5125524;27;24538;-60
2021/09/18 02:18:55;;;;;;;2.20;2.10;;;;;;;;;;5127114;27;24882;-60
2021/09/18 02:21:20;;;;;;;2.60;2.50;;;;;;;;;;5124649;27;25115;-61
2021/09/18 02:23:47;;;;;;;2.27;2.17;;;;;;;;;;5128696;27;24435;-59
2021/09/18 02:26:12;;;;;;;2.78;2.58;;;;;;;;;;5128807;27;25002;-60
2021/09/18 02:28:37;;;;;;;2.60;2.40;;;;;;;;;;5127513;27;24447;-60
2021/09/18 02:31:03;;;;;;;2.20;2.10;;;;;;;;;;5126052;27;24831;-60
2021/09/18 02:33:28;;;;;;;2.40;2.20;;;;;;;;;;5128094;27;24494;-59
2021/09/18 02:35:53;;;;;;;2.47;2.30;;;;;;;;;;5127325;27;24429;-59
2021/09/18 02:38:18;;;;;;;2.60;2.40;;;;;;;;;;5128003;27;25014;-60
2021/09/18 02:40:43;;;;;;;2.50;2.30;;;;;;;;;;5125054;27;24513;-59
2021/09/18 02:43:08;;;;;;;2.28;2.17;;;;;;;;;;5128184;27;24501;-60
2021/09/18 02:45:34;;;;;;;2.22;2.13;;;;;;;;;;5123830;27;24424;-60
2021/09/18 02:47:59;;;;;;;2.40;2.20;;;;;;;;;;5114590;27;24417;-60
2021/09/18 02:50:25;;;;;;;2.40;2.30;;;;;;;;;;5128165;27;24412;-60
2021/09/18 02:52:50;;;;;;;3.25;2.30;;;;;;;;;;5123040;27;24516;-60
2021/09/18 02:55:15;;;;;;;2.70;2.50;;;;;;;;;;5128633;27;24432;-59
2021/09/18 02:57:41;;;;;;;2.40;2.30;;;;;;;;;;5127772;27;24417;-60
2021/09/18 03:00:08;;;;;;;2.60;2.40;;;;;;;;;;5126206;27;24561;-60
2021/09/18 03:02:33;;;;;;;2.70;2.40;;;;;;;;;;5119212;27;24834;-59
2021/09/18 03:04:58;;;;;;;2.30;2.10;;;;;;;;;;5126548;27;24931;-59
2021/09/18 03:07:23;;;;;;;2.63;2.20;;;;;;;;;;5128488;27;25249;-59
2021/09/18 03:09:48;;;;;;;2.57;2.37;;;;;;;;;;5128198;27;25274;-60
2021/09/18 03:12:13;;;;;;;2.00;1.90;;;;;;;;;;5117037;27;24987;-59
2021/09/18 03:14:39;;;;;;;2.10;1.90;;;;;;;;;;5120258;27;24979;-59
2021/09/18 03:17:04;;;;;;;2.00;1.90;;;;;;;;;;5125608;27;24473;-59
2021/09/18 03:19:29;;;;;;;1.77;1.60;;;;;;;;;;5121506;27;24417;-60
2021/09/18 03:21:54;;;;;;;2.00;1.90;;;;;;;;;;5120091;27;24872;-60
2021/09/18 03:24:19;;;;;;;2.10;1.80;;;;;;;;;;5128789;27;25001;-59
2021/09/18 03:26:45;;;;;;;1.80;1.70;;;;;;;;;;5127769;27;24409;-59
2021/09/18 03:29:10;;;;;;;1.70;1.37;;;;;;;;;;5128270;27;25020;-58
2021/09/18 03:31:35;;;;;;;1.50;1.40;;;;;;;;;;5119156;27;24433;-59
2021/09/18 03:34:01;;;;;;;2.23;1.47;;;;;;;;;;5127543;27;24449;-59
2021/09/18 03:36:26;;;;;;;1.50;1.40;;;;;;;;;;5118615;27;24513;-60
2021/09/18 03:38:51;;;;;;;1.40;1.30;;;;;;;;;;5127701;27;24412;-59
2021/09/18 03:41:16;;;;;;;1.90;1.10;;;;;;;;;;5124575;27;24408;-63
2021/09/18 03:43:41;;;;;;;1.40;1.30;;;;;;;;;;5125278;27;24554;-59
2021/09/18 03:46:06;;;;;;;1.23;1.17;;;;;;;;;;5117644;27;24966;-58
2021/09/18 03:48:31;;;;;;;1.20;1.10;;;;;;;;;;5127010;27;24409;-58
2021/09/18 03:50:57;;;;;;;1.30;1.20;;;;;;;;;;5124288;27;24970;-59
2021/09/18 03:53:22;;;;;;;1.20;1.10;;;;;;;;;;5126673;27;24423;-59
2021/09/18 03:55:47;;;;;;;1.30;1.20;;;;;;;;;;5127701;27;24474;-59
2021/09/18 03:58:12;;;;;;;1.10;1.10;;;;;;;;;;5117109;27;24786;-58
2021/09/18 04:00:37;;;;;;;1.60;1.50;;;;;;;;;;5125377;27;24425;-59
2021/09/18 04:03:02;;;;;;;2.37;1.40;;;;;;;;;;5123853;27;24479;-59
2021/09/18 04:05:27;;;;;;;1.60;1.50;;;;;;;;;;5127011;27;24417;-60
2021/09/18 04:07:53;;;;;;;1.20;1.10;;;;;;;;;;5121453;27;24843;-58
2021/09/18 04:10:18;;;;;;;1.20;1.10;;;;;;;;;;5127851;27;24951;-59
2021/09/18 04:12:43;;;;;;;1.60;1.50;;;;;;;;;;5124629;27;24429;-59
2021/09/18 04:15:08;;;;;;;1.00;1.00;;;;;;;;;;5126886;27;24422;-58
2021/09/18 04:17:34;;;;;;;1.58;1.30;;;;;;;;;;5125985;27;24432;-58
2021/09/18 04:19:59;;;;;;;1.20;1.10;;;;;;;;;;5125610;27;24417;-58
2021/09/18 04:22:24;;;;;;;1.50;1.40;;;;;;;;;;5120100;27;24426;-59
2021/09/18 04:24:49;;;;;;;1.40;1.30;;;;;;;;;;5120184;27;24424;-58
2021/09/18 04:27:14;;;;;;;1.03;1.00;;;;;;;;;;5119909;27;24405;-59
2021/09/18 04:29:39;;;;;;;1.10;0.90;;;;;;;;;;5115568;27;24551;-59
2021/09/18 04:32:05;;;;;;;1.38;1.30;;;;;;;;;;5124668;27;24535;-58
2021/09/18 04:34:30;;;;;;;1.00;1.00;;;;;;;;;;5126326;27;24448;-59
2021/09/18 04:36:57;;;;;;;1.20;1.10;;;;;;;;;;5114972;27;24410;-59
2021/09/18 04:39:22;;;;;;;1.00;1.00;;;;;;;;;;5114046;27;24420;-59
2021/09/18 04:41:47;;;;;;;1.30;1.20;;;;;;;;;;5126065;27;24413;-59
2021/09/18 04:44:12;;;;;;;1.70;1.23;;;;;;;;;;5118672;27;24682;-58
2021/09/18 04:46:37;;;;;;;1.30;1.20;;;;;;;;;;5123094;27;24730;-59
2021/09/18 04:49:03;;;;;;;1.40;1.30;;;;;;;;;;5126573;27;24405;-58
2021/09/18 04:51:28;;;;;;;1.50;1.40;;;;;;;;;;5125096;27;24617;-58
2021/09/18 04:53:53;;;;;;;1.58;1.48;;;;;;;;;;5125131;27;24424;-59
2021/09/18 04:56:18;;;;;;;1.40;1.30;;;;;;;;;;5122891;27;24409;-58
2021/09/18 04:58:45;;;;;;;1.25;1.15;;;;;;;;;;5116578;27;25066;-59
2021/09/18 05:01:10;;;;;;;1.20;1.10;;;;;;;;;;5114518;27;24413;-58
2021/09/18 05:03:35;;;;;;;1.60;1.00;;;;;;;;;;5124606;27;24440;-58
2021/09/18 05:06:00;;;;;;;1.48;1.35;;;;;;;;;;5123739;28;24420;-59
2021/09/18 05:08:25;;;;;;;1.45;1.35;;;;;;;;;;5124312;28;24839;-60
2021/09/18 05:10:50;;;;;;;1.60;1.30;;;;;;;;;;5124197;28;24401;-59
2021/09/18 05:13:16;;;;;;;1.20;1.10;;;;;;;;;;5120512;28;24425;-59
2021/09/18 05:15:41;;;;;;;1.50;1.25;;;;;;;;;;5111699;28;24420;-59
2021/09/18 05:18:06;;;;;;;1.23;1.13;;;;;;;;;;5125875;28;24413;-59
2021/09/18 05:20:31;;;;;;;1.10;1.10;;;;;;;;;;5125897;28;24413;-59
2021/09/18 05:22:56;;;;;;;1.27;1.00;;;;;;;;;;5124687;28;24464;-59
2021/09/18 05:25:21;;;;;;;1.00;1.00;;;;;;;;;;5126497;28;24493;-60
2021/09/18 05:27:47;;;;;;;1.60;1.40;;;;;;;;;;5126487;28;24450;-59
2021/09/18 05:30:12;;;;;;;1.52;1.42;;;;;;;;;;5126634;28;25026;-59
2021/09/18 05:32:37;;;;;;;1.30;1.20;;;;;;;;;;5124943;28;24441;-59
2021/09/18 05:35:03;;;;;;;1.90;1.30;;;;;;;;;;5118226;28;24501;-59
2021/09/18 05:37:29;;;;;;;1.60;1.37;;;;;;;;;;5124784;27;24504;-59
2021/09/18 05:39:54;;;;;;;1.80;1.60;;;;;;;;;;5123652;27;24853;-59
2021/09/18 05:42:19;;;;;;;1.40;1.30;;;;;;;;;;5120403;27;24987;-59
2021/09/18 05:44:44;;;;;;;1.50;1.40;;;;;;;;;;5118276;27;25039;-59
2021/09/18 05:47:09;;;;;;;1.67;1.58;;;;;;;;;;5120113;27;24417;-59
2021/09/18 05:49:34;;;;;;;1.90;1.60;;;;;;;;;;5119798;27;24416;-59
2021/09/18 05:52:00;;;;;;;2.07;1.43;;;;;;;;;;5117774;27;24406;-59
2021/09/18 05:54:27;;;;;;;1.30;1.20;;;;;;;;;;5123965;27;24501;-59
2021/09/18 05:56:52;;;;;;;1.52;1.42;;;;;;;;;;5130273;27;24986;-59
2021/09/18 05:59:17;;;;;;;2.10;1.20;;;;;;;;;;5125050;27;24933;-59
2021/09/18 06:01:43;;;;;;;1.97;1.50;;;;;;;;;;5121756;27;24409;-59
2021/09/18 06:04:08;;;;;;;2.30;1.45;;;;;;;;;;5120182;27;24439;-59
2021/09/18 06:06:39;;;;;;;1.50;1.40;;;;;;;;;;5125260;27;24466;-59
2021/09/18 06:09:04;;;;;;;1.75;1.65;;;;;;;;;;5126412;27;24850;-59
2021/09/18 06:11:29;;;;;;;1.60;1.50;;;;;;;;;;5129717;27;24955;-59
2021/09/18 06:13:54;;;;;;;1.08;1.08;;;;;;;;;;5129752;27;24409;-60
2021/09/18 06:16:22;;;;;;;1.38;1.27;;;;;;;;;;5128080;27;24456;-59
2021/09/18 06:18:47;;;;;;;1.60;1.45;;;;;;;;;;5125120;27;24424;-60
2021/09/18 06:21:12;;;;;;;1.50;1.40;;;;;;;;;;5129956;27;24482;-60
2021/09/18 06:23:37;;;;;;;2.20;2.00;;;;;;;;;;5129441;27;24521;-60
2021/09/18 06:26:06;;;;;;;1.50;1.40;;;;;;;;;;5130094;27;24948;-60
2021/09/18 06:28:31;;;;;;;2.20;1.50;;;;;;;;;;5129232;27;24405;-59
2021/09/18 06:30:56;;;;;;;1.70;1.60;;;;;;;;;;5129384;27;24405;-60
2021/09/18 06:33:21;;;;;;;1.70;1.40;;;;;;;;;;5127407;27;24433;-64
2021/09/18 06:35:47;;;;;;;1.63;1.40;;;;;;;;;;5122037;27;24421;-59
2021/09/18 06:38:12;;;;;;;1.70;1.60;;;;;;;;;;5129485;27;24936;-60
2021/09/18 06:40:37;;;;;;;1.90;1.80;;;;;;;;;;5125164;27;24966;-59
2021/09/18 06:43:02;;;;;;;1.65;1.55;;;;;;;;;;5127003;27;24517;-59
2021/09/18 06:45:28;;;;;;;3.30;1.63;;;;;;;;;;5125280;27;24986;-59
2021/09/18 06:47:55;;;;;;;2.40;1.70;;;;;;;;;;5129098;27;24424;-60
2021/09/18 06:50:20;;;;;;;1.70;1.60;;;;;;;;;;5129526;27;24385;-59
2021/09/18 06:52:45;;;;;;;1.90;1.65;;;;;;;;;;5129362;27;24384;-59
2021/09/18 06:55:10;;;;;;;1.70;1.60;;;;;;;;;;5126456;27;24436;-61
2021/09/18 06:57:38;;;;;;;1.70;1.60;;;;;;;;;;5125834;27;24466;-60
2021/09/18 07:00:04;;;;;;;1.70;1.60;;;;;;;;;;5128356;27;24409;-60
2021/09/18 07:02:29;;;;;;;2.10;1.50;;;;;;;;;;5126198;27;24981;-60
2021/09/18 07:04:54;;;;;;;1.93;1.77;;;;;;;;;;5115723;27;24496;-60
2021/09/18 07:07:19;;;;;;;1.57;1.30;;;;;;;;;;5128591;27;25004;-60
2021/09/18 07:09:45;;;;;;;1.90;1.70;;;;;;;;;;5127074;27;24495;-60
2021/09/18 07:12:10;;;;;;;1.75;1.42;;;;;;;;;;5120620;27;25182;-59
2021/09/18 07:14:35;;;;;;;1.60;1.50;;;;;;;;;;5119698;27;24993;-60
2021/09/18 07:17:01;;;;;;;3.07;1.50;;;;;;;;;;5120870;27;25024;-60
2021/09/18 07:19:26;;;;;;;2.30;1.60;;;;;;;;;;5113406;27;24425;-60
2021/09/18 07:21:51;;;;;;;1.70;1.40;;;;;;;;;;5108647;27;24955;-59
2021/09/18 07:24:16;;;;;;;1.60;1.33;;;;;;;;;;5117658;27;24469;-60
2021/09/18 07:26:41;;;;;;;1.70;1.60;;;;;;;;;;5125823;27;24413;-59
2021/09/18 07:29:06;;;;;;;1.70;1.50;;;;;;;;;;5127172;27;24964;-60
2021/09/18 07:31:32;;;;;;;2.57;1.30;;;;;;;;;;5123233;27;24473;-59
2021/09/18 07:33:57;;;;;;;1.57;1.47;;;;;;;;;;5126232;27;24979;-61
2021/09/18 07:36:22;;;;;;;1.50;1.40;;;;;;;;;;5127922;27;24424;-59
2021/09/18 07:38:48;;;;;;;3.00;1.50;;;;;;;;;;5127517;27;24764;-60
2021/09/18 07:41:15;;;;;;;2.83;1.30;;;;;;;;;;5128170;27;24420;-58
2021/09/18 07:43:40;;;;;;;1.63;1.40;;;;;;;;;;5127948;27;24429;-60
2021/09/18 07:46:05;;;;;;;0.88;0.88;;;;;;;;;;5127231;27;24419;-61
2021/09/18 07:48:30;;;;;;;1.50;1.10;;;;;;;;;;5127642;27;24409;-59
2021/09/18 07:50:56;;;;;;;2.03;1.50;;;;;;;;;;5126943;27;24413;-59
2021/09/18 07:53:21;;;;;;;1.50;1.23;;;;;;;;;;5127532;27;24437;-59
2021/09/18 07:55:46;;;;;;;1.40;1.00;;;;;;;;;;5126342;27;24409;-60
2021/09/18 07:58:12;;;;;;;2.20;1.20;;;;;;;;;;5127644;27;24466;-60
2021/09/18 08:00:37;;;;;;;1.10;1.10;;;;;;;;;;5127345;27;24458;-60
2021/09/18 08:03:02;;;;;;;1.10;1.00;;;;;;;;;;5126896;27;24746;-59
2021/09/18 08:05:27;;;;;;;1.10;0.90;;;;;;;;;;5127308;27;24536;-60
2021/09/18 08:07:52;;;;;;;1.50;1.10;;;;;;;;;;5127554;27;24409;-60
2021/09/18 08:10:17;;;;;;;1.80;1.20;;;;;;;;;;5127758;27;24854;-60
2021/09/18 08:12:49;;;;;;;1.30;1.20;;;;;;;;;;5126819;27;24423;-60
2021/09/18 08:15:15;;;;;;;1.40;1.10;;;;;;;;;;5127235;27;25045;-61
2021/09/18 08:17:41;;;;;;;1.30;1.10;;;;;;;;;;5126942;27;24469;-60
2021/09/18 08:20:07;;;;;;;1.40;1.00;;;;;;;;;;5126225;27;24680;-60
2021/09/18 08:22:32;;;;;;;1.48;0.90;;;;;;;;;;5126870;27;24456;-61
2021/09/18 08:24:57;;;;;;;1.30;0.90;;;;;;;;;;5126293;27;24401;-60
2021/09/18 08:27:22;;;;;;;1.20;0.93;;;;;;;;;;5124119;27;24401;-60
2021/09/18 08:29:47;;;;;;;1.27;1.00;;;;;;;;;;5125895;27;24401;-60
2021/09/18 08:32:12;;;;;;;1.98;0.90;;;;;;;;;;5126924;27;24460;-60
2021/09/18 08:34:38;;;;;;;1.60;0.80;;;;;;;;;;5126679;27;24413;-60
2021/09/18 08:37:03;;;;;;;1.10;1.00;;;;;;;;;;5113749;27;24487;-60
2021/09/18 08:39:28;;;;;;;1.30;1.20;;;;;;;;;;5123043;27;24458;-60
2021/09/18 08:41:53;;;;;;;0.80;0.80;;;;;;;;;;5114634;27;24528;-60
2021/09/18 08:44:18;;;;;;;0.60;0.60;;;;;;;;;;5124412;27;24397;-61
2021/09/18 08:46:43;;;;;;;1.23;0.77;;;;;;;;;;5126933;27;24509;-60
2021/09/18 08:49:09;;;;;;;1.20;0.73;;;;;;;;;;5126165;27;24559;-60
2021/09/18 08:51:35;;;;;;;1.50;0.90;;;;;;;;;;5127047;27;24411;-60
2021/09/18 08:54:00;;;;;;;0.90;0.90;;;;;;;;;;5126740;27;24413;-60
2021/09/18 08:56:25;;;;;;;2.70;1.00;;;;;;;;;;5125687;27;24466;-60
2021/09/18 08:58:51;;;;;;;1.50;0.80;;;;;;;;;;5126098;27;24974;-60
2021/09/18 09:01:16;;;;;;;0.70;0.60;;;;;;;;;;5126100;27;24496;-60
2021/09/18 09:03:41;;;;;;;1.10;0.80;;;;;;;;;;5124940;27;24976;-60
2021/09/18 09:06:14;;;;;;;0.77;0.70;;;;;;;;;;5126162;27;24934;-60
2021/09/18 09:08:40;;;;;;;0.80;0.80;;;;;;;;;;5126138;28;24784;-60
2021/09/18 09:11:19;;;;;;;0.77;0.77;;;;;;;;;;5126566;28;24458;-61
2021/09/18 09:14:00;;;;;;;1.10;0.70;;;;;;;;;;5127439;27;24417;-60
2021/09/18 09:16:27;;;;;;;0.60;0.60;;;;;;;;;;5130719;27;24454;-60
2021/09/18 09:18:52;;;;;;;1.23;0.70;;;;;;;;;;5130719;27;24763;-60
2021/09/18 09:21:22;;;;;;;0.70;0.70;;;;;;;;;;5131369;27;24417;-59
2021/09/18 09:24:23;;;;;;;0.90;0.70;;;;;;;;;;5129962;27;24481;-60
2021/09/18 09:27:06;;;;;;;1.48;0.90;;;;;;;;;;5046879;28;25020;-60
2021/09/18 09:29:38;;;;;;;2.30;1.20;;;;;;;;;;5123552;27;25000;-60
2021/09/18 09:32:23;;;;;;;0.88;0.88;;;;;;;;;;5130583;27;24466;-60
2021/09/18 09:34:51;;;;;;;1.20;1.00;;;;;;;;;;5129852;27;24511;-60
2021/09/18 09:37:16;;;;;;;0.90;0.90;;;;;;;;;;5130883;27;24406;-60
2021/09/18 09:39:49;;;;;;;1.10;1.00;;;;;;;;;;5130292;27;24387;-60
2021/09/18 09:42:14;;;;;;;1.50;1.10;;;;;;;;;;5130780;27;24520;-60
2021/09/18 09:44:39;;;;;;;1.38;0.90;;;;;;;;;;5129862;27;24406;-60
2021/09/18 09:47:09;;;;;;;1.30;1.20;;;;;;;;;;5130443;27;24453;-60
2021/09/18 09:49:45;;;;;;;1.58;1.00;;;;;;;;;;5130233;27;24387;-60
2021/09/18 09:52:22;;;;;;;1.23;1.10;;;;;;;;;;5130542;27;24539;-60
2021/09/18 09:54:48;;;;;;;0.88;0.88;;;;;;;;;;5129418;27;24424;-60
2021/09/18 09:57:14;;;;;;;1.90;1.40;;;;;;;;;;5129237;27;24769;-60
2021/09/18 09:59:40;;;;;;;1.20;1.10;;;;;;;;;;5129129;27;24861;-62
2021/09/18 10:02:06;;;;;;;1.40;1.30;;;;;;;;;;5129241;27;25039;-60
2021/09/18 10:04:31;;;;;;;1.92;1.10;;;;;;;;;;5129897;27;24989;-60
2021/09/18 10:06:57;;;;;;;1.00;0.90;;;;;;;;;;5129397;27;24417;-60
2021/09/18 10:09:23;;;;;;;1.90;1.10;;;;;;;;;;5129445;27;24504;-60
2021/09/18 10:11:48;;;;;;;1.20;1.10;;;;;;;;;;5129458;27;24405;-60
2021/09/18 10:14:14;;;;;;;1.73;1.10;;;;;;;;;;5129330;27;25016;-60
2021/09/18 10:16:40;;;;;;;1.48;1.35;;;;;;;;;;5129081;27;24412;-60
2021/09/18 10:19:08;;;;;;;1.50;1.40;;;;;;;;;;5128811;27;24409;-60
2021/09/18 10:24:17;;;;;;;2.50;1.27;;;;;;;;;;5129255;27;24464;-61
2021/09/18 10:26:42;;;;;;;1.37;1.27;;;;;;;;;;5129272;27;24436;-61
2021/09/18 10:29:07;;;;;;;1.40;1.30;;;;;;;;;;5129132;27;24405;-61
2021/09/18 10:31:32;;;;;;;8.02;5.03;;;;;;;;;;5125381;27;24803;-60
2021/09/18 10:33:57;;;;;;;5.90;3.63;;;;;;;;;;5128037;27;24978;-63
2021/09/18 10:36:29;;;;;;;8.52;3.75;;;;;;;;;;5129082;27;25034;-61
2021/09/18 10:39:06;;;;;;;2.95;2.42;;;;;;;;;;5129093;27;25050;-60
2021/09/18 10:41:41;;;;;;;3.25;2.22;;;;;;;;;;5128788;27;24401;-61
2021/09/18 10:44:07;;;;;;;1.70;1.60;;;;;;;;;;5128776;27;24433;-60
2021/09/18 10:46:43;;;;;;;1.67;1.58;;;;;;;;;;5129302;27;25001;-60
2021/09/18 10:49:40;;;;;;;1.40;1.30;;;;;;;;;;5128518;27;24699;-60
2021/09/18 10:52:17;;;;;;;1.70;1.30;;;;;;;;;;5102332;27;24472;-60
2021/09/18 10:55:08;;;;;;;1.33;1.05;;;;;;;;;;5128405;27;24984;-61
2021/09/18 10:57:41;;;;;;;1.70;1.60;;;;;;;;;;5129077;27;24416;-60
2021/09/18 11:00:13;;;;;;;1.88;1.40;;;;;;;;;;5128749;27;25134;-61
2021/09/18 11:02:40;;;;;;;1.50;1.40;;;;;;;;;;5127663;27;24832;-60
2021/09/18 11:05:06;;;;;;;4.07;3.45;;;;;;;;;;5128504;27;24416;-61
2021/09/18 11:07:41;;;;;;;1.70;1.60;;;;;;;;;;5128890;27;24416;-61
2021/09/18 11:10:21;;;;;;;1.70;1.42;;;;;;;;;;5128219;27;24777;-60
2021/09/18 11:13:05;;;;;;;2.45;1.90;;;;;;;;;;5128409;27;24424;-60
2021/09/18 11:15:50;;;;;;;2.25;1.92;;;;;;;;;;5128548;27;24416;-60
2021/09/18 11:18:28;;;;;;;2.80;2.50;;;;;;;;;;5118465;27;24523;-60
2021/09/18 11:21:00;;;;;;;2.60;2.40;;;;;;;;;;5120729;27;24427;-60
2021/09/18 11:23:42;;;;;;;2.37;2.17;;;;;;;;;;5117861;27;24492;-59
2021/09/18 11:26:25;;;;;;;2.70;2.50;;;;;;;;;;5118319;27;24413;-59
2021/09/18 11:28:52;;;;;;;3.10;2.30;;;;;;;;;;5115676;27;24449;-61
2021/09/18 11:31:17;;;;;;;1.88;1.77;;;;;;;;;;5122212;27;24468;-60
2021/09/18 11:33:47;;;;;;;3.03;2.57;;;;;;;;;;5109782;27;24433;-61
2021/09/18 11:36:13;;;;;;;2.70;2.50;;;;;;;;;;5109050;27;24991;-60
2021/09/18 11:38:38;;;;;;;2.50;2.30;;;;;;;;;;5105621;28;24406;-60
2021/09/18 11:41:08;;;;;;;2.30;2.20;;;;;;;;;;5116194;27;24508;-60
2021/09/18 11:43:33;;;;;;;3.22;3.03;;;;;;;;;;5125455;27;24485;-60
2021/09/18 11:46:00;;;;;;;3.03;2.83;;;;;;;;;;5123344;27;25010;-60
2021/09/18 11:48:25;;;;;;;2.60;2.50;;;;;;;;;;5106182;27;24417;-60
2021/09/18 11:50:51;;;;;;;2.30;2.20;;;;;;;;;;5105274;27;24420;-60
2021/09/18 11:53:16;;;;;;;2.70;2.60;;;;;;;;;;5124828;27;24413;-61
2021/09/18 11:55:46;;;;;;;2.60;2.50;;;;;;;;;;5122582;27;24609;-61
2021/09/18 11:58:13;;;;;;;2.90;2.70;;;;;;;;;;5124161;27;24956;-60
2021/09/18 12:00:54;;;;;;;2.97;2.77;;;;;;;;;;5115554;27;24405;-60
2021/09/18 12:03:24;;;;;;;2.70;2.50;;;;;;;;;;5115707;27;24437;-61
2021/09/18 12:05:50;;;;;;;2.97;2.78;;;;;;;;;;5118528;27;24414;-61
2021/09/18 12:08:18;;;;;;;2.50;2.30;;;;;;;;;;5104750;28;24959;-60
2021/09/18 12:10:44;;;;;;;2.28;2.10;;;;;;;;;;5108746;27;24444;-61
2021/09/18 12:13:09;;;;;;;2.90;2.70;;;;;;;;;;5123097;27;24405;-60
2021/09/18 12:15:39;;;;;;;2.50;2.30;;;;;;;;;;5123852;27;24420;-61
2021/09/18 12:18:07;;;;;;;2.80;2.60;;;;;;;;;;5104581;27;24471;-61
2021/09/18 12:20:32;;;;;;;2.50;2.40;;;;;;;;;;5117909;27;24776;-60
2021/09/18 12:22:58;;;;;;;2.50;2.30;;;;;;;;;;5120885;27;24986;-60
2021/09/18 12:25:27;;;;;;;1.97;1.87;;;;;;;;;;5111824;27;24440;-60
2021/09/18 12:27:56;;;;;;;2.30;2.20;;;;;;;;;;5116451;27;24790;-60
2021/09/18 12:30:25;;;;;;;1.80;1.70;;;;;;;;;;5097390;27;24504;-60
2021/09/18 12:33:00;;;;;;;2.00;1.90;;;;;;;;;;5115629;27;24469;-60
2021/09/18 12:35:35;;;;;;;1.90;1.80;;;;;;;;;;5123293;27;24439;-60
2021/09/18 12:38:00;;;;;;;1.50;1.40;;;;;;;;;;5124283;27;25130;-60
2021/09/18 12:40:34;;;;;;;2.30;2.10;;;;;;;;;;5123262;27;24440;-60
2021/09/18 12:43:05;;;;;;;2.10;2.00;;;;;;;;;;5123451;27;24997;-60
2021/09/18 12:45:34;;;;;;;1.90;1.80;;;;;;;;;;5122620;27;24947;-60
2021/09/18 12:48:08;;;;;;;2.00;1.90;;;;;;;;;;5122762;27;24417;-60
2021/09/18 12:50:44;;;;;;;2.30;2.10;;;;;;;;;;5123846;27;24406;-60
2021/09/18 12:53:20;;;;;;;2.20;2.10;;;;;;;;;;5123297;27;24891;-60
2021/09/18 12:56:05;;;;;;;2.08;1.98;;;;;;;;;;5119727;27;24445;-60
2021/09/18 12:58:30;;;;;;;2.60;2.40;;;;;;;;;;5122700;27;24413;-60
2021/09/18 13:00:56;;;;;;;1.90;1.80;;;;;;;;;;5122423;27;24428;-60
2021/09/18 13:03:21;;;;;;;2.30;2.20;;;;;;;;;;5121732;27;24433;-60
2021/09/18 13:05:54;;;;;;;1.80;1.70;;;;;;;;;;5121364;27;24512;-60
2021/09/18 13:08:19;;;;;;;2.30;2.20;;;;;;;;;;5122503;27;24472;-60
2021/09/18 13:10:44;;;;;;;2.45;2.30;;;;;;;;;;5123341;27;24420;-60
2021/09/18 13:13:29;;;;;;;2.37;2.17;;;;;;;;;;5103951;28;24494;-60
2021/09/18 13:16:01;;;;;;;2.85;2.65;;;;;;;;;;5114858;28;24417;-59
2021/09/18 13:18:26;;;;;;;2.20;2.10;;;;;;;;;;5122637;28;24497;-59
2021/09/18 13:20:51;;;;;;;2.50;2.35;;;;;;;;;;5125897;28;24408;-59
2021/09/18 13:23:17;;;;;;;2.50;2.40;;;;;;;;;;5126214;28;24415;-60
2021/09/18 13:25:42;;;;;;;2.50;2.30;;;;;;;;;;5125814;28;24773;-60
2021/09/18 13:28:07;;;;;;;1.80;1.70;;;;;;;;;;5126443;28;24433;-60
2021/09/18 13:30:32;;;;;;;2.50;2.30;;;;;;;;;;5126405;28;24664;-59
2021/09/18 13:32:58;;;;;;;2.80;2.60;;;;;;;;;;5126670;28;24433;-60
2021/09/18 13:35:24;;;;;;;2.30;2.20;;;;;;;;;;5126368;28;24408;-60
2021/09/18 13:37:49;;;;;;;2.20;2.10;;;;;;;;;;5125839;28;24416;-59
2021/09/18 13:40:14;;;;;;;2.03;1.93;;;;;;;;;;5126374;28;24587;-60
2021/09/18 13:42:39;;;;;;;2.33;2.22;;;;;;;;;;5126213;28;24413;-59
2021/09/18 13:45:04;;;;;;;2.65;2.47;;;;;;;;;;5126096;28;24391;-60
2021/09/18 13:47:30;;;;;;;2.30;2.10;;;;;;;;;;5125632;28;24433;-60
2021/09/18 13:49:55;;;;;;;1.70;1.60;;;;;;;;;;5125966;28;24497;-60
2021/09/18 13:52:20;;;;;;;2.30;2.20;;;;;;;;;;5126422;28;24438;-59
2021/09/18 13:54:45;;;;;;;3.10;2.90;;;;;;;;;;5125661;28;24431;-60
2021/09/18 13:57:10;;;;;;;2.83;2.63;;;;;;;;;;5125809;28;24764;-59
2021/09/18 13:59:35;;;;;;;3.15;2.85;;;;;;;;;;5127194;27;24450;-59
2021/09/18 14:02:00;;;;;;;3.60;3.40;;;;;;;;;;5130115;27;24721;-60
2021/09/18 14:04:26;;;;;;;3.28;3.08;;;;;;;;;;5129682;27;24377;-60
2021/09/18 14:06:51;;;;;;;3.00;2.80;;;;;;;;;;5129791;27;24397;-60
2021/09/18 14:09:16;;;;;;;2.70;2.50;;;;;;;;;;5129701;27;24789;-60
2021/09/18 14:11:41;;;;;;;3.30;3.10;;;;;;;;;;5129955;27;24974;-60
2021/09/18 14:14:07;;;;;;;3.17;2.97;;;;;;;;;;5129889;27;24472;-60
2021/09/18 14:16:33;;;;;;;3.00;2.80;;;;;;;;;;5129669;27;24405;-60
2021/09/18 14:18:58;;;;;;;2.90;2.70;;;;;;;;;;5129382;27;24477;-59
2021/09/18 14:21:23;;;;;;;3.30;3.10;;;;;;;;;;5129610;27;24400;-60
2021/09/18 14:23:48;;;;;;;3.40;3.20;;;;;;;;;;5127354;27;24528;-60
2021/09/18 14:26:15;;;;;;;2.93;2.73;;;;;;;;;;5129210;27;24851;-59
2021/09/18 14:28:41;;;;;;;3.55;3.30;;;;;;;;;;5128984;27;24404;-60
2021/09/18 14:31:06;;;;;;;3.53;3.33;;;;;;;;;;5129159;27;24489;-60
2021/09/18 14:33:31;;;;;;;2.83;2.63;;;;;;;;;;5129586;27;24429;-60
2021/09/18 14:35:56;;;;;;;3.72;3.42;;;;;;;;;;5128733;27;24504;-60
2021/09/18 14:38:22;;;;;;;4.40;4.10;;;;;;;;;;5129112;27;24446;-60
2021/09/18 14:40:47;;;;;;;4.00;3.60;;;;;;;;;;5129200;27;24468;-60
2021/09/18 14:43:12;;;;;;;3.80;3.50;;;;;;;;;;5129256;27;24776;-60
2021/09/18 14:45:37;;;;;;;4.13;3.83;;;;;;;;;;5128369;27;24413;-60
2021/09/18 14:48:02;;;;;;;3.40;3.20;;;;;;;;;;5129164;27;24941;-60